Time;durP1;ratioP1;P1;durP2;ratioP2;P2;SDS_P1;SDS_P2;PMS_P1;PMS_P2;Temp;Humidity;BMP_temperature;BMP_pressure;BME280_temperature;BME280_humidity;BME280_pressure;Samples;Min_cycle;Max_cycle;Signal;HPM_P1;HPM_P2
2022/09/26 00:00:48;;;;;;;1.03;0.90;;;;;;;18.28;40.30;95061.97;5037089;28;20871;-65
2022/09/26 00:03:15;;;;;;;2.23;2.10;;;;;;;18.06;40.70;95064.56;5049893;28;20502;-67
2022/09/26 00:05:41;;;;;;;1.43;1.10;;;;;;;18.18;40.35;95068.25;5050319;28;20479;-66
2022/09/26 00:08:08;;;;;;;0.40;0.40;;;;;;;18.24;40.04;95060.97;5049999;28;20455;-63
2022/09/26 00:10:35;;;;;;;1.10;0.77;;;;;;;18.12;40.72;95063.34;5046509;28;20810;-70
2022/09/26 00:13:02;;;;;;;0.93;0.73;;;;;;;17.91;41.15;95048.97;5039465;28;20455;-68
2022/09/26 00:15:30;;;;;;;0.77;0.60;;;;;;;18.19;40.56;95058.44;5035748;28;20439;-70
2022/09/26 00:17:57;;;;;;;0.50;0.50;;;;;;;17.72;40.82;95056.22;5041023;28;21100;-65
2022/09/26 00:20:23;;;;;;;0.40;0.40;;;;;;;17.11;41.94;95044.13;5043186;28;20451;-66
2022/09/26 00:22:50;;;;;;;0.83;0.83;;;;;;;17.25;42.11;95052.06;5050061;28;20575;-67
2022/09/26 00:25:18;;;;;;;2.73;0.70;;;;;;;17.76;40.96;95046.63;5050256;28;20438;-68
2022/09/26 00:27:45;;;;;;;0.77;0.67;;;;;;;17.81;40.83;95041.22;5045105;28;21216;-63
2022/09/26 00:30:11;;;;;;;1.00;0.40;;;;;;;17.95;40.80;95047.28;5039198;28;20465;-68
2022/09/26 00:32:38;;;;;;;0.40;0.33;;;;;;;17.99;40.69;95053.56;5049613;28;20455;-65
2022/09/26 00:35:06;;;;;;;0.10;0.10;;;;;;;18.16;40.56;95051.84;5055029;28;20844;-64
2022/09/26 00:37:34;;;;;;;0.70;0.70;;;;;;;16.77;42.63;95054.22;5059039;28;20472;-62
2022/09/26 00:40:01;;;;;;;0.37;0.37;;;;;;;17.23;42.06;95040.97;5059294;28;20455;-67
2022/09/26 00:42:27;;;;;;;1.27;0.70;;;;;;;17.52;41.32;95038.06;5028862;28;20474;-67
2022/09/26 00:44:55;;;;;;;1.97;1.17;;;;;;;17.58;41.42;95031.59;5041252;28;20475;-68
2022/09/26 00:47:37;;;;;;;0.13;0.13;;;;;;;17.51;41.52;95021.41;5043543;28;20558;-64
2022/09/26 00:50:33;;;;;;;0.70;0.70;;;;;;;17.49;42.27;95038.69;5037852;28;20471;-68
2022/09/26 00:53:13;;;;;;;0.83;0.67;;;;;;;17.04;42.78;95037.63;5040546;28;20478;-66
2022/09/26 00:55:46;;;;;;;0.40;0.40;;;;;;;17.24;42.61;95035.38;5036015;28;20914;-64
2022/09/26 00:58:26;;;;;;;0.50;0.50;;;;;;;17.52;42.21;95030.13;5048798;28;20548;-67
2022/09/26 01:00:54;;;;;;;0.93;0.93;;;;;;;17.53;41.89;95029.84;5048506;28;20502;-71
2022/09/26 01:03:22;;;;;;;0.10;0.10;;;;;;;17.58;41.96;95015.72;5047607;28;20479;-64
2022/09/26 01:05:50;;;;;;;1.13;0.53;;;;;;;17.92;41.39;95038.06;5029386;28;20496;-71
2022/09/26 01:08:24;;;;;;;0.13;0.13;;;;;;;17.79;41.57;95038.09;5041746;28;20446;-71
2022/09/26 01:10:52;;;;;;;0.10;0.10;;;;;;;17.91;41.46;95035.69;5041759;28;20442;-66
2022/09/26 01:13:20;;;;;;;7.63;1.80;;;;;;;17.84;41.82;95022.88;5036393;28;20480;-61
2022/09/26 01:15:47;;;;;;;0.00;0.00;;;;;;;17.77;41.76;95013.75;5048234;28;21009;-68
2022/09/26 01:18:14;;;;;;;0.10;0.10;;;;;;;17.76;41.46;95023.56;5037974;28;20451;-66
2022/09/26 01:21:07;;;;;;;2.00;0.57;;;;;;;17.84;41.46;95024.72;5045687;28;20561;-70
2022/09/26 01:23:57;;;;;;;0.57;0.57;;;;;;;17.68;42.14;95016.28;5050371;28;20482;-70
2022/09/26 01:26:23;;;;;;;0.30;0.30;;;;;;;17.86;41.81;95027.88;5047804;28;20942;-66
2022/09/26 01:29:15;;;;;;;0.50;0.50;;;;;;;17.73;42.08;95018.06;5034177;28;20809;-65
2022/09/26 01:36:02;;;;;;;0.73;0.73;;;;;;;17.66;42.69;95022.97;5072041;28;20439;-64
2022/09/26 01:38:43;;;;;;;1.90;1.13;;;;;;;17.79;42.73;95019.53;5055117;28;20445;-67
2022/09/26 01:41:20;;;;;;;4.90;1.73;;;;;;;18.00;41.68;95025.97;5029781;28;20471;-71
2022/09/26 01:44:06;;;;;;;0.57;0.57;;;;;;;17.91;41.72;95027.75;5030935;28;20487;-67
2022/09/26 01:46:49;;;;;;;1.23;1.13;;;;;;;17.92;42.03;95026.66;5047111;28;20973;-68
2022/09/26 01:49:31;;;;;;;1.17;1.13;;;;;;;17.96;42.18;95022.34;5034613;28;20526;-70
2022/09/26 01:52:18;;;;;;;0.57;0.57;;;;;;;18.06;41.29;95024.78;5028937;28;20955;-70
2022/09/26 01:54:53;;;;;;;1.10;0.97;;;;;;;17.96;41.73;95020.47;5029569;28;20456;-71
2022/09/26 01:57:28;;;;;;;0.40;0.40;;;;;;;17.91;42.32;95014.50;5038606;28;20446;-64
2022/09/26 02:00:00;;;;;;;0.53;0.53;;;;;;;17.83;42.09;95007.22;5037716;28;20752;-68
2022/09/26 02:02:34;;;;;;;0.33;0.33;;;;;;;17.71;42.44;95010.41;5038238;28;20712;-69
2022/09/26 02:05:13;;;;;;;0.60;0.60;;;;;;;17.80;42.33;95007.84;5039775;28;20796;-70
2022/09/26 02:07:44;;;;;;;0.50;0.50;;;;;;;17.80;41.87;95002.53;5039659;28;20798;-63
2022/09/26 02:10:17;;;;;;;0.53;0.53;;;;;;;17.38;42.66;94984.28;5037294;28;20479;-66
2022/09/26 02:12:49;;;;;;;0.53;0.53;;;;;;;17.69;42.63;94993.22;5050149;28;20487;-68
2022/09/26 02:15:19;;;;;;;1.27;1.17;;;;;;;17.77;41.84;95000.50;5050581;28;20446;-65
2022/09/26 02:17:52;;;;;;;0.70;0.70;;;;;;;17.83;41.86;95004.59;5043860;28;20444;-68
2022/09/26 02:20:29;;;;;;;1.93;1.17;;;;;;;17.68;42.12;94996.97;5045907;28;20477;-69
2022/09/26 02:23:02;;;;;;;0.70;0.70;;;;;;;17.75;41.90;94998.16;5031808;28;20514;-68
2022/09/26 02:25:30;;;;;;;0.20;0.20;;;;;;;17.67;42.22;94998.03;5044787;28;20439;-65
2022/09/26 02:27:57;;;;;;;0.57;0.57;;;;;;;17.53;42.81;94997.28;5044378;28;20554;-68
2022/09/26 02:30:25;;;;;;;1.50;1.40;;;;;;;17.54;43.04;94988.22;5032167;28;21251;-65
2022/09/26 02:32:52;;;;;;;0.30;0.30;;;;;;;17.64;41.75;94982.75;5045142;28;20436;-69
2022/09/26 02:38:10;;;;;;;0.93;0.63;;;;;;;17.61;42.28;94967.44;5047114;28;20447;-62
2022/09/26 02:40:52;;;;;;;0.40;0.40;;;;;;;17.85;42.16;94962.66;5030443;28;20451;-68
2022/09/26 02:43:31;;;;;;;0.77;0.77;;;;;;;17.91;42.31;94966.78;5030046;28;20562;-65
2022/09/26 02:46:07;;;;;;;0.10;0.10;;;;;;;17.90;42.15;94970.53;5037259;28;20796;-61
2022/09/26 02:48:52;;;;;;;0.37;0.37;;;;;;;17.85;42.32;94976.72;5049981;28;20538;-71
2022/09/26 02:51:23;;;;;;;0.97;0.97;;;;;;;17.91;42.23;94969.44;5037307;28;20820;-65
2022/09/26 02:54:12;;;;;;;0.30;0.30;;;;;;;17.64;42.12;94966.84;5044078;28;20460;-66
2022/09/26 02:57:12;;;;;;;0.10;0.10;;;;;;;17.61;42.24;94978.03;5044110;28;20530;-69
2022/09/26 02:59:59;;;;;;;0.10;0.10;;;;;;;17.86;41.66;94970.31;5030137;28;20456;-67
2022/09/26 03:02:37;;;;;;;0.57;0.57;;;;;;;17.96;41.78;94964.78;5037193;28;20477;-66
2022/09/26 03:05:21;;;;;;;0.13;0.13;;;;;;;18.01;41.71;94963.91;5034404;28;20476;-67
2022/09/26 03:07:58;;;;;;;0.77;0.63;;;;;;;17.66;42.33;94949.56;5049651;28;20466;-70
2022/09/26 03:10:30;;;;;;;0.40;0.40;;;;;;;17.73;41.97;94951.81;5050790;28;20492;-70
2022/09/26 03:13:04;;;;;;;0.30;0.30;;;;;;;17.97;41.65;94960.28;5050659;28;20984;-67
2022/09/26 03:15:34;;;;;;;0.53;0.53;;;;;;;17.91;41.86;94945.56;5047674;28;20450;-67
2022/09/26 03:18:06;;;;;;;0.40;0.40;;;;;;;17.67;42.11;94948.47;5030155;28;20475;-67
2022/09/26 03:20:34;;;;;;;0.87;0.87;;;;;;;17.64;42.16;94945.63;5046118;28;20447;-65
2022/09/26 03:23:03;;;;;;;0.93;0.83;;;;;;;17.65;41.91;94957.78;5036016;28;20503;-63
2022/09/26 03:25:31;;;;;;;2.13;1.10;;;;;;;17.58;42.19;94955.56;5050795;28;20445;-70
2022/09/26 03:28:04;;;;;;;0.67;0.67;;;;;;;17.58;42.01;94960.06;5044031;28;20440;-69
2022/09/26 03:30:32;;;;;;;1.43;1.23;;;;;;;17.40;41.82;94953.78;5043062;28;20549;-66
2022/09/26 03:33:20;;;;;;;0.90;0.90;;;;;;;17.43;41.68;94936.50;5040962;28;20539;-68
2022/09/26 03:35:47;;;;;;;0.47;0.47;;;;;;;17.40;41.60;94934.47;5047356;28;20494;-68
2022/09/26 03:38:14;;;;;;;0.33;0.33;;;;;;;17.55;42.25;94929.66;5049033;28;20446;-67
2022/09/26 03:40:48;;;;;;;0.10;0.10;;;;;;;17.53;42.34;94945.06;5035054;28;20506;-67
2022/09/26 03:43:35;;;;;;;0.20;0.20;;;;;;;17.64;42.23;94925.22;5030885;28;21116;-67
2022/09/26 03:46:06;;;;;;;0.77;0.70;;;;;;;17.54;42.62;94925.44;5049160;28;20439;-70
2022/09/26 03:48:34;;;;;;;0.30;0.30;;;;;;;17.38;42.46;94933.97;5035582;28;20440;-63
2022/09/26 03:51:04;;;;;;;0.57;0.57;;;;;;;17.48;42.70;94929.25;5030709;28;20444;-64
2022/09/26 03:53:36;;;;;;;0.17;0.17;;;;;;;17.43;43.04;94933.84;5037375;28;20452;-62
2022/09/26 03:56:11;;;;;;;0.00;0.00;;;;;;;17.50;42.65;94939.59;5045371;28;20449;-68
2022/09/26 03:58:38;;;;;;;0.30;0.30;;;;;;;17.43;42.93;94937.28;5050215;28;20519;-66
2022/09/26 04:01:13;;;;;;;0.53;0.53;;;;;;;17.46;42.87;94938.59;5038339;28;20440;-66
2022/09/26 04:03:43;;;;;;;0.40;0.40;;;;;;;17.01;43.20;94937.59;5028646;28;20483;-70
2022/09/26 04:06:18;;;;;;;0.30;0.30;;;;;;;17.30;42.77;94924.09;5029360;28;20464;-62
2022/09/26 04:08:49;;;;;;;1.03;0.60;;;;;;;17.33;42.97;94920.84;5042390;28;20442;-68
2022/09/26 04:11:19;;;;;;;0.60;0.60;;;;;;;17.54;42.04;94924.66;5028803;28;20452;-66
2022/09/26 04:13:48;;;;;;;0.67;0.67;;;;;;;17.42;42.47;94919.84;5028271;28;20539;-69
2022/09/26 04:16:22;;;;;;;2.50;1.77;;;;;;;17.25;42.64;94932.91;5028064;28;20976;-67
2022/09/26 04:18:56;;;;;;;0.87;0.87;;;;;;;17.18;42.78;94938.59;5012965;28;20540;-65
2022/09/26 04:21:25;;;;;;;0.87;0.67;;;;;;;16.62;45.18;94938.09;5031408;28;20435;-64
2022/09/26 04:23:53;;;;;;;1.60;1.50;;;;;;;16.98;44.66;94931.06;5038547;28;20506;-65
2022/09/26 04:26:22;;;;;;;0.50;0.50;;;;;;;17.04;45.23;94937.81;5028003;28;20444;-65
2022/09/26 04:28:53;;;;;;;0.63;0.63;;;;;;;17.02;44.45;94939.97;5036813;28;20512;-67
2022/09/26 04:31:25;;;;;;;0.70;0.70;;;;;;;17.37;44.56;94943.00;5032812;28;20448;-64
2022/09/26 04:33:59;;;;;;;0.43;0.43;;;;;;;16.85;45.53;94950.34;5036970;28;20454;-62
2022/09/26 04:36:26;;;;;;;3.80;3.47;;;;;;;17.36;45.28;94944.06;5046704;28;21166;-65
2022/09/26 04:38:53;;;;;;;8.93;5.67;;;;;;;17.56;44.52;94948.97;5046192;28;20446;-65
2022/09/26 04:41:21;;;;;;;4.33;3.97;;;;;;;17.58;44.76;94957.41;5027956;28;20979;-68
2022/09/26 04:43:48;;;;;;;1.87;1.40;;;;;;;17.66;43.86;94940.84;5030477;28;21087;-69
2022/09/26 04:46:22;;;;;;;6.60;3.70;;;;;;;17.61;42.91;94946.25;5044566;28;20515;-69
2022/09/26 04:48:58;;;;;;;3.10;2.80;;;;;;;17.45;44.28;94943.09;5033594;28;20434;-69
2022/09/26 04:51:27;;;;;;;1.17;1.13;;;;;;;17.68;42.96;94930.72;5034666;28;20498;-67
2022/09/26 04:53:54;;;;;;;0.70;0.67;;;;;;;17.15;43.44;94928.59;5029468;28;20443;-67
2022/09/26 04:56:25;;;;;;;0.47;0.47;;;;;;;17.24;44.87;94947.25;5037385;28;21188;-66
2022/09/26 04:58:55;;;;;;;2.60;1.93;;;;;;;17.28;44.26;94916.41;5047023;28;21032;-65
2022/09/26 05:01:25;;;;;;;0.80;0.80;;;;;;;17.69;43.73;94922.47;5036019;28;20446;-67
2022/09/26 05:04:18;;;;;;;4.17;1.80;;;;;;;17.88;43.37;94931.03;5037345;28;20480;-68
2022/09/26 05:06:50;;;;;;;0.10;0.10;;;;;;;17.62;43.61;94935.34;5047916;28;20447;-67
2022/09/26 05:09:25;;;;;;;15.00;2.03;;;;;;;17.80;42.97;94933.63;5047686;28;20514;-69
2022/09/26 05:11:58;;;;;;;3.03;2.67;;;;;;;17.84;43.41;94934.59;5033681;28;20456;-69
2022/09/26 05:14:26;;;;;;;1.97;1.87;;;;;;;17.73;43.27;94922.66;5040647;28;20951;-71
2022/09/26 05:16:53;;;;;;;1.27;1.27;;;;;;;17.07;44.95;94931.94;5027869;28;20976;-71
2022/09/26 05:19:21;;;;;;;0.43;0.43;;;;;;;17.44;43.98;94930.13;5043538;28;20533;-67
2022/09/26 05:22:07;;;;;;;0.40;0.40;;;;;;;17.69;44.22;94916.38;5038894;28;20504;-70
2022/09/26 05:27:20;;;;;;;0.70;0.70;;;;;;;17.32;44.92;94919.28;5046553;28;20448;-63
2022/09/26 05:29:47;;;;;;;1.10;0.70;;;;;;;17.72;44.46;94905.16;5035791;28;20489;-62
2022/09/26 05:32:16;;;;;;;3.03;0.90;;;;;;;17.93;43.52;94922.19;5051797;28;20444;-66
2022/09/26 05:34:43;;;;;;;1.40;1.30;;;;;;;17.72;44.62;94923.72;5053128;28;20458;-63
2022/09/26 05:37:13;;;;;;;0.67;0.67;;;;;;;17.93;44.32;94906.28;5055427;28;20474;-63
2022/09/26 05:42:27;;;;;;;5.43;2.53;;;;;;;18.11;43.25;94902.69;5031781;28;20475;-65
2022/09/26 05:44:54;;;;;;;7.13;2.40;;;;;;;18.17;43.28;94901.47;5043176;28;20483;-68
2022/09/26 05:47:22;;;;;;;1.43;0.93;;;;;;;18.08;43.14;94897.97;5038435;28;20487;-67
2022/09/26 05:49:49;;;;;;;6.97;2.27;;;;;;;18.03;43.47;94895.44;5041104;28;20440;-65
2022/09/26 05:52:18;;;;;;;2.47;2.10;;;;;;;18.04;44.03;94912.94;5038509;28;20447;-65
2022/09/26 05:54:45;;;;;;;1.93;1.80;;;;;;;18.02;43.81;94929.13;5038177;28;20475;-66
2022/09/26 05:57:30;;;;;;;3.10;2.30;;;;;;;18.12;43.31;94920.94;5032560;28;20557;-64
2022/09/26 05:59:57;;;;;;;2.87;2.67;;;;;;;18.31;43.02;94910.16;5045288;28;20442;-65
2022/09/26 06:02:24;;;;;;;1.00;1.00;;;;;;;18.31;43.15;94912.00;5052857;28;20810;-64
2022/09/26 06:05:08;;;;;;;1.53;1.43;;;;;;;18.45;43.07;94912.75;5036895;28;20463;-63
2022/09/26 06:07:37;;;;;;;1.33;1.23;;;;;;;18.14;43.74;94923.28;5052455;28;20809;-67
2022/09/26 06:10:09;;;;;;;18.23;1.80;;;;;;;18.10;43.78;94912.50;5037339;28;20958;-69
2022/09/26 06:13:01;;;;;;;2.30;1.90;;;;;;;18.38;43.01;94913.16;5031254;28;20455;-65
2022/09/26 06:15:30;;;;;;;0.60;0.60;;;;;;;18.61;42.67;94927.97;5032956;28;20466;-67
2022/09/26 06:18:03;;;;;;;1.50;1.40;;;;;;;18.28;43.18;94939.94;5043222;28;20479;-70
2022/09/26 06:20:32;;;;;;;2.67;1.73;;;;;;;18.31;43.27;94926.06;5031945;28;20450;-67
2022/09/26 06:23:00;;;;;;;3.07;1.60;;;;;;;18.23;43.64;94932.88;5043328;28;20442;-64
2022/09/26 06:25:28;;;;;;;2.13;1.30;;;;;;;18.39;42.69;94935.97;5031109;28;20809;-67
2022/09/26 06:27:59;;;;;;;3.33;2.03;;;;;;;18.47;42.27;94924.63;5037671;28;20442;-67
2022/09/26 06:30:28;;;;;;;1.40;0.53;;;;;;;18.74;42.17;94919.16;5050993;28;20441;-66
2022/09/26 06:33:02;;;;;;;1.23;1.10;;;;;;;18.69;42.63;94921.94;5031014;28;20467;-67
2022/09/26 06:35:37;;;;;;;1.67;1.57;;;;;;;18.58;43.29;94923.28;5030961;28;20462;-65
2022/09/26 06:38:08;;;;;;;1.60;1.53;;;;;;;18.54;43.26;94917.00;5032016;28;20443;-66
2022/09/26 06:40:36;;;;;;;0.90;0.83;;;;;;;18.58;43.22;94923.28;5030174;28;20471;-64
2022/09/26 06:43:04;;;;;;;2.77;0.97;;;;;;;18.74;42.40;94921.81;5042209;28;20500;-67
2022/09/26 06:45:49;;;;;;;0.77;0.77;;;;;;;18.41;42.21;94907.25;5037364;28;20513;-67
2022/09/26 06:48:35;;;;;;;0.30;0.30;;;;;;;18.93;41.70;94909.09;5036027;28;20523;-63
2022/09/26 06:51:18;;;;;;;1.33;1.23;;;;;;;19.10;41.78;94897.75;5037614;28;20521;-65
2022/09/26 06:53:46;;;;;;;13.60;1.87;;;;;;;18.31;43.95;94907.50;5030567;28;20506;-67
2022/09/26 06:56:18;;;;;;;0.93;0.90;;;;;;;18.42;43.21;94908.84;5030130;28;20829;-64
2022/09/26 06:58:47;;;;;;;0.50;0.50;;;;;;;18.04;44.02;94907.63;5033800;28;20554;-65
2022/09/26 07:01:14;;;;;;;1.13;0.90;;;;;;;18.54;43.08;94916.25;5049815;28;20478;-66
2022/09/26 07:03:41;;;;;;;1.23;1.17;;;;;;;18.52;43.67;94913.88;5051388;28;21012;-64
2022/09/26 07:06:30;;;;;;;2.47;0.87;;;;;;;19.62;41.31;94901.31;5051431;28;20458;-66
2022/09/26 07:08:57;;;;;;;0.10;0.10;;;;;;;19.50;40.20;94907.25;5035690;28;20950;-62
2022/09/26 07:11:46;;;;;;;3.53;1.00;;;;;;;19.39;38.96;94910.50;5050851;28;20435;-65
2022/09/26 07:14:33;;;;;;;0.60;0.60;;;;;;;19.35;38.89;94915.66;5038652;28;20443;-66
2022/09/26 07:17:14;;;;;;;0.70;0.70;;;;;;;20.25;38.61;94914.03;5035378;28;20439;-63
2022/09/26 07:20:02;;;;;;;2.50;0.63;;;;;;;20.03;38.44;94909.63;5059678;28;20455;-67
2022/09/26 07:23:10;;;;;;;0.70;0.63;;;;;;;20.37;37.55;94898.19;5048449;28;20961;-66
2022/09/26 07:25:39;;;;;;;0.50;0.50;;;;;;;20.18;38.39;94901.22;5031305;28;20962;-66
2022/09/26 07:28:08;;;;;;;0.30;0.30;;;;;;;20.68;37.72;94899.53;5036635;28;20471;-66
2022/09/26 07:30:44;;;;;;;0.10;0.10;;;;;;;21.01;36.79;94902.41;5049362;28;20458;-67
2022/09/26 07:33:33;;;;;;;0.40;0.40;;;;;;;20.58;36.88;94902.53;5039875;28;20528;-65
2022/09/26 07:36:05;;;;;;;1.70;0.83;;;;;;;20.91;36.98;94910.72;5049220;28;20449;-66
2022/09/26 07:38:32;;;;;;;0.47;0.47;;;;;;;21.13;36.77;94910.50;5050661;28;20827;-63
2022/09/26 07:40:59;;;;;;;0.47;0.47;;;;;;;21.08;36.83;94905.34;5035114;28;20436;-66
2022/09/26 07:43:28;;;;;;;0.33;0.33;;;;;;;20.87;36.77;94904.47;5028935;28;20523;-63
2022/09/26 07:51:55;;;;;;;1.50;0.83;;;;;;;21.05;37.29;94898.78;5032820;28;20515;-66
2022/09/26 07:54:29;;;;;;;0.30;0.30;;;;;;;20.44;38.48;94880.63;5037866;28;20527;-63
2022/09/26 07:57:15;;;;;;;0.70;0.70;;;;;;;20.62;38.40;94884.03;5049648;28;20434;-68
2022/09/26 08:00:12;;;;;;;4.43;0.93;;;;;;;21.33;37.38;94887.69;5045949;28;20458;-65
2022/09/26 08:02:45;;;;;;;0.27;0.27;;;;;;;21.30;36.24;94867.78;5042263;28;20452;-66
2022/09/26 08:05:18;;;;;;;0.80;0.80;;;;;;;21.64;36.25;94850.78;5043991;28;20497;-65
2022/09/26 08:07:48;;;;;;;0.37;0.37;;;;;;;21.22;36.89;94849.97;5040420;28;20538;-62
2022/09/26 08:10:46;;;;;;;0.50;0.37;;;;;;;21.69;35.66;94858.56;5027918;28;20452;-65
2022/09/26 08:13:32;;;;;;;1.37;1.00;;;;;;;21.72;36.22;94852.59;5028713;28;20896;-64
2022/09/26 08:16:23;;;;;;;0.53;0.53;;;;;;;21.78;35.82;94851.28;5038044;28;20681;-65
2022/09/26 08:18:54;;;;;;;2.20;1.80;;;;;;;21.86;35.39;94845.16;5034482;28;20789;-61
2022/09/26 08:21:23;;;;;;;1.07;1.03;;;;;;;22.45;34.91;94838.44;5048539;28;20538;-66
2022/09/26 08:23:53;;;;;;;0.20;0.20;;;;;;;21.80;35.39;94849.91;5033400;28;20522;-64
2022/09/26 08:26:31;;;;;;;0.30;0.30;;;;;;;21.42;35.74;94853.75;5038489;28;20465;-64
2022/09/26 08:29:22;;;;;;;3.47;2.67;;;;;;;22.22;34.78;94839.16;5034186;28;20525;-62
2022/09/26 08:31:53;;;;;;;0.30;0.30;;;;;;;22.36;34.81;94829.72;5048127;28;20196;-65
2022/09/26 08:34:21;;;;;;;0.10;0.10;;;;;;;21.88;36.09;94824.22;5044805;28;20208;-67
2022/09/26 08:37:12;;;;;;;0.60;0.60;;;;;;;21.98;34.56;94816.63;5038005;28;20875;-62
2022/09/26 08:39:59;;;;;;;0.43;0.43;;;;;;;22.81;34.17;94806.44;5036850;28;21031;-66
2022/09/26 08:43:32;;;;;;;1.50;1.03;;;;;;;23.09;33.23;94804.66;5036223;28;20212;-66
2022/09/26 08:46:51;;;;;;;0.27;0.27;;;;;;;23.14;33.92;94823.13;5007348;28;20616;-65
2022/09/26 08:49:43;;;;;;;6.80;2.53;;;;;;;22.80;32.64;94820.94;4998675;28;20204;-63
2022/09/26 08:52:27;;;;;;;4.50;0.87;;;;;;;22.93;34.20;94800.31;4989932;28;20206;-67
2022/09/26 08:55:01;;;;;;;0.97;0.97;;;;;;;22.83;33.94;94806.88;5015970;28;20225;-66
2022/09/26 08:57:41;;;;;;;4.00;2.30;;;;;;;23.81;33.04;94805.66;5000963;28;20257;-67
2022/09/26 09:00:13;;;;;;;0.20;0.20;;;;;;;24.03;32.83;94794.44;5004498;28;20695;-66
2022/09/26 09:03:03;;;;;;;0.57;0.57;;;;;;;24.10;32.21;94802.66;5017176;28;20238;-64
2022/09/26 09:05:34;;;;;;;2.80;1.47;;;;;;;24.63;31.51;94798.66;5008136;28;20236;-65
2022/09/26 09:08:06;;;;;;;0.43;0.43;;;;;;;24.78;30.95;94795.22;5009613;28;20564;-64
2022/09/26 09:11:12;;;;;;;0.20;0.20;;;;;;;24.90;31.23;94795.91;4997473;28;20201;-67
2022/09/26 09:13:59;;;;;;;1.97;1.17;;;;;;;25.02;30.59;94790.44;5007847;28;20321;-68
2022/09/26 09:17:16;;;;;;;4.20;2.53;;;;;;;24.89;31.93;94783.63;5011737;28;20762;-71
2022/09/26 09:20:13;;;;;;;0.47;0.47;;;;;;;24.66;31.76;94774.63;5017559;28;20763;-63
2022/09/26 09:23:33;;;;;;;0.47;0.47;;;;;;;25.36;30.17;94758.59;4993885;28;20198;-67
2022/09/26 09:26:03;;;;;;;40.23;1.37;;;;;;;25.29;30.83;94763.81;5003627;28;20194;-69
2022/09/26 09:29:38;;;;;;;1.67;1.17;;;;;;;25.94;30.49;94779.00;5001800;28;20201;-66
2022/09/26 09:32:33;;;;;;;0.30;0.30;;;;;;;26.25;30.05;94773.47;4989005;28;20277;-65
2022/09/26 09:35:40;;;;;;;0.63;0.63;;;;;;;26.64;28.89;94763.38;5001830;28;20198;-67
2022/09/26 09:38:31;;;;;;;0.37;0.37;;;;;;;25.97;30.13;94741.47;4989658;28;20664;-65
2022/09/26 09:41:14;;;;;;;1.50;0.70;;;;;;;25.79;29.41;94761.81;5005647;28;20201;-67
2022/09/26 09:43:57;;;;;;;0.77;0.77;;;;;;;26.25;29.74;94746.59;5017718;28;20699;-66
2022/09/26 09:46:29;;;;;;;0.60;0.60;;;;;;;26.57;29.40;94742.53;5038102;28;20203;-69
2022/09/26 09:48:59;;;;;;;0.30;0.30;;;;;;;26.49;29.10;94748.94;5047729;28;20933;-69
2022/09/26 09:51:51;;;;;;;0.67;0.67;;;;;;;26.94;28.80;94751.59;5035473;28;20220;-62
2022/09/26 09:54:41;;;;;;;0.27;0.27;;;;;;;26.37;29.53;94749.09;5027654;28;20218;-70
2022/09/26 09:57:35;;;;;;;0.40;0.40;;;;;;;27.24;28.14;94737.41;5029580;28;20201;-65
2022/09/26 10:00:19;;;;;;;1.17;1.07;;;;;;;27.02;28.13;94730.97;5045846;28;20209;-64
2022/09/26 10:03:41;;;;;;;0.73;0.73;;;;;;;26.98;28.72;94720.16;5051427;28;20691;-66
2022/09/26 10:06:10;;;;;;;0.80;0.37;;;;;;;27.34;28.84;94712.56;5032876;28;20696;-64
2022/09/26 10:09:11;;;;;;;0.67;0.53;;;;;;;27.69;27.80;94707.63;5027215;28;20282;-68
2022/09/26 10:12:21;;;;;;;0.40;0.40;;;;;;;27.94;26.95;94695.22;5042892;28;20268;-70
2022/09/26 10:15:19;;;;;;;1.27;0.80;;;;;;;27.48;28.46;94696.63;5030810;28;20205;-65
2022/09/26 10:18:15;;;;;;;0.30;0.30;;;;;;;27.65;28.14;94698.72;5047894;28;20209;-60
2022/09/26 10:21:07;;;;;;;0.63;0.63;;;;;;;27.66;28.53;94697.59;5055045;28;20201;-69
2022/09/26 10:23:44;;;;;;;0.20;0.20;;;;;;;27.90;27.60;94710.56;5043170;28;20273;-65
2022/09/26 10:26:24;;;;;;;1.40;1.17;;;;;;;27.49;27.87;94708.94;5031252;28;20189;-66
2022/09/26 10:28:59;;;;;;;0.40;0.40;;;;;;;27.67;27.95;94704.53;5030756;28;20228;-64
2022/09/26 10:31:29;;;;;;;0.30;0.30;;;;;;;27.71;28.23;94708.81;5031160;28;20251;-66
2022/09/26 10:34:21;;;;;;;0.20;0.20;;;;;;;28.01;26.76;94705.31;5032149;28;20216;-66
2022/09/26 10:36:48;;;;;;;0.93;0.93;;;;;;;27.87;27.20;94695.13;5041224;28;20201;-67
2022/09/26 10:42:03;;;;;;;9.53;1.03;;;;;;;28.11;27.74;94683.06;5032747;28;20266;-64
2022/09/26 10:44:38;;;;;;;0.40;0.40;;;;;;;28.07;27.69;94676.88;5041869;28;20245;-70
2022/09/26 10:47:11;;;;;;;0.50;0.50;;;;;;;28.69;27.14;94675.88;5047637;28;20208;-66
2022/09/26 10:49:54;;;;;;;0.37;0.37;;;;;;;28.80;26.95;94672.13;5051523;28;20220;-64
2022/09/26 10:52:45;;;;;;;1.80;1.70;;;;;;;28.22;26.88;94663.19;5040879;28;20193;-70
2022/09/26 10:55:24;;;;;;;1.43;1.33;;;;;;;28.39;27.65;94657.16;5049559;28;20200;-64
2022/09/26 10:57:57;;;;;;;0.67;0.47;;;;;;;28.14;27.94;94634.63;5039633;28;20614;-68
2022/09/26 11:00:50;;;;;;;0.20;0.20;;;;;;;28.40;26.95;94655.22;5035103;28;20300;-69
2022/09/26 11:03:25;;;;;;;2.17;1.40;;;;;;;28.54;26.81;94631.88;5036295;28;20215;-68
2022/09/26 11:06:39;;;;;;;0.17;0.17;;;;;;;28.47;27.18;94639.09;5068952;28;20230;-68
2022/09/26 11:09:37;;;;;;;2.10;0.50;;;;;;;28.36;27.73;94636.34;5026582;28;20243;-63
2022/09/26 11:12:40;;;;;;;0.70;0.70;;;;;;;29.22;26.88;94635.75;5038237;28;20235;-67
2022/09/26 11:15:12;;;;;;;2.37;1.03;;;;;;;28.94;27.01;94626.34;5043008;28;20239;-65
2022/09/26 11:17:42;;;;;;;0.30;0.30;;;;;;;29.17;26.65;94631.50;5044032;28;20232;-63
2022/09/26 11:20:16;;;;;;;0.77;0.67;;;;;;;28.82;27.28;94632.06;5043519;28;20723;-66
2022/09/26 11:23:03;;;;;;;0.50;0.50;;;;;;;28.76;26.84;94632.78;5045381;28;20548;-67
2022/09/26 11:25:43;;;;;;;0.33;0.33;;;;;;;28.95;27.51;94619.81;5029350;28;20306;-66
2022/09/26 11:28:18;;;;;;;0.50;0.50;;;;;;;29.24;27.35;94620.72;5029348;28;20645;-67
2022/09/26 11:31:34;;;;;;;0.50;0.50;;;;;;;29.45;26.17;94618.09;5045940;28;20673;-60
2022/09/26 11:34:35;;;;;;;0.40;0.40;;;;;;;29.61;26.58;94612.38;5058765;28;20220;-71
2022/09/26 11:37:17;;;;;;;0.67;0.67;;;;;;;29.62;25.64;94603.88;5051177;28;20246;-64
2022/09/26 11:40:02;;;;;;;0.40;0.40;;;;;;;29.31;26.59;94607.25;5035173;28;20290;-69
2022/09/26 11:43:12;;;;;;;0.33;0.33;;;;;;;29.35;26.39;94593.78;5033156;28;20233;-67
2022/09/26 11:46:16;;;;;;;0.43;0.43;;;;;;;29.77;26.28;94593.91;5042859;28;20743;-66
2022/09/26 11:49:00;;;;;;;0.50;0.40;;;;;;;29.97;26.65;94586.97;5039007;28;20672;-68
2022/09/26 11:51:55;;;;;;;0.60;0.60;;;;;;;30.17;25.77;94580.03;5030916;28;20300;-64
2022/09/26 11:54:45;;;;;;;0.70;0.50;;;;;;;30.00;24.81;94574.63;5030394;28;20204;-68
2022/09/26 11:57:47;;;;;;;0.87;0.53;;;;;;;29.92;25.11;94568.44;5050090;28;20188;-66
2022/09/26 12:00:25;;;;;;;0.30;0.30;;;;;;;30.08;25.07;94576.16;5050498;28;20226;-63
2022/09/26 12:03:34;;;;;;;0.30;0.30;;;;;;;29.71;25.15;94571.13;5050406;28;20212;-68
2022/09/26 12:06:13;;;;;;;0.40;0.30;;;;;;;29.42;25.81;94562.19;5030177;28;20225;-65
2022/09/26 12:09:14;;;;;;;0.80;0.80;;;;;;;29.68;26.08;94561.06;5048902;28;20219;-62
2022/09/26 12:12:02;;;;;;;3.23;2.33;;;;;;;30.15;25.63;94558.00;5051633;28;20246;-66
2022/09/26 12:15:01;;;;;;;0.47;0.40;;;;;;;30.18;25.48;94559.97;5049917;28;20679;-68
2022/09/26 12:17:34;;;;;;;0.33;0.33;;;;;;;30.08;25.23;94554.53;5035804;28;20204;-65
2022/09/26 12:20:19;;;;;;;0.43;0.43;;;;;;;30.18;25.67;94549.16;5050212;28;20206;-69
2022/09/26 12:22:52;;;;;;;0.30;0.30;;;;;;;29.99;25.63;94552.25;5035822;28;20660;-65
2022/09/26 12:25:54;;;;;;;0.60;0.60;;;;;;;29.79;25.78;94546.44;5049936;28;20216;-67
2022/09/26 12:28:57;;;;;;;1.20;0.73;;;;;;;29.64;26.47;94538.69;5047324;28;20192;-66
2022/09/26 12:31:42;;;;;;;0.20;0.20;;;;;;;29.52;26.38;94539.06;4992815;28;20249;-66
2022/09/26 12:34:29;;;;;;;0.20;0.20;;;;;;;29.42;26.65;94534.41;5030869;28;20205;-68
2022/09/26 12:37:04;;;;;;;0.20;0.20;;;;;;;29.66;25.90;94533.66;5049628;28;20583;-65
2022/09/26 12:40:10;;;;;;;0.40;0.40;;;;;;;29.53;26.03;94529.78;5035587;28;20204;-67
2022/09/26 12:43:04;;;;;;;0.30;0.30;;;;;;;29.26;26.69;94531.28;5036496;28;20267;-63
2022/09/26 12:46:12;;;;;;;0.30;0.30;;;;;;;29.34;26.75;94522.06;5032509;28;20249;-67
2022/09/26 12:49:05;;;;;;;0.50;0.50;;;;;;;29.27;26.76;94511.25;5043703;28;20235;-68